Terminal Aerodrome Forecast
Issued by NWS

Home | Current Version | Previous Version | Text Only | Print | Product List | Glossary On
Versions: 1 2 3 4 5 6 7 8 9 10 11 12 13 14
000
FTUS45 KVEF 111122
TAFVGT
TAF
KVGT 111122Z 1112/1212 34009KT P6SM FEW150 BKN200
     FM111900 VRB05KT P6SM FEW070 SCT150 BKN200
     FM120300 32006KT P6SM FEW070 BKN200=

USA.gov is the U.S. government's official web portal to all federal, state and local government web resources and services.